createdAt,value
2022-09-07T00:03:14.025Z,4.40
2022-09-07T00:07:16.314Z,4.32
2022-09-07T00:11:19.742Z,4.33
2022-09-07T00:15:21.946Z,4.27
2022-09-07T00:19:23.867Z,4.20
2022-09-07T00:23:27.579Z,4.29
2022-09-07T00:27:29.743Z,4.22
2022-09-07T00:31:32.420Z,4.14
2022-09-07T00:35:40.110Z,4.07
2022-09-07T00:39:42.459Z,4.10
2022-09-07T00:43:56.845Z,4.12
2022-09-07T00:48:07.712Z,4.03
2022-09-07T00:52:12.484Z,3.89
2022-09-07T00:56:14.710Z,3.93
2022-09-07T01:00:17.217Z,3.80
2022-09-07T01:04:20.382Z,3.81
2022-09-07T01:08:25.737Z,3.76
2022-09-07T01:12:27.964Z,3.68
2022-09-07T01:17:08.259Z,3.63
2022-09-07T01:21:19.755Z,3.61
2022-09-07T01:25:23.478Z,3.64
2022-09-07T01:29:47.834Z,3.66
2022-09-07T01:33:55.422Z,3.51
2022-09-07T01:38:09.943Z,3.48
2022-09-07T01:42:15.018Z,3.49
2022-09-07T01:46:27.083Z,3.36
2022-09-07T01:50:38.350Z,3.37
2022-09-07T01:55:03.336Z,3.32
2022-09-07T01:59:18.803Z,3.22
2022-09-07T02:03:29.974Z,3.11
2022-09-07T02:07:56.505Z,3.11
2022-09-07T02:12:04.005Z,3.11
2022-09-07T02:16:36.636Z,2.97
2022-09-07T02:20:42.874Z,3.04
2022-09-07T02:24:50.902Z,3.00
2022-09-07T02:28:53.383Z,3.00
2022-09-07T02:32:56.477Z,2.93
2022-09-07T02:37:02.930Z,2.83
2022-09-07T02:41:07.414Z,2.81
2022-09-07T02:45:13.347Z,2.81
2022-09-07T02:49:15.349Z,2.79
2022-09-07T02:53:39.837Z,2.81
2022-09-07T02:58:00.546Z,2.67
2022-09-07T03:02:05.814Z,2.62
2022-09-07T03:06:21.418Z,2.53
2022-09-07T03:10:24.880Z,2.48
2022-09-07T03:14:27.096Z,2.44
2022-09-07T03:18:29.851Z,2.34
2022-09-07T03:22:34.164Z,2.44
2022-09-07T03:26:43.364Z,2.37
2022-09-07T03:30:49.450Z,2.33
2022-09-07T03:34:52.363Z,2.25
2022-09-07T03:38:55.330Z,2.24
2022-09-07T03:42:57.653Z,2.22
2022-09-07T03:46:59.956Z,2.22
2022-09-07T03:51:08.426Z,2.21
2022-09-07T03:55:10.461Z,2.22
2022-09-07T03:59:12.819Z,2.20
2022-09-07T04:03:15.060Z,2.21
2022-09-07T04:07:17.375Z,2.22
2022-09-07T04:11:20.028Z,2.28
2022-09-07T04:15:22.458Z,2.28
2022-09-07T04:19:24.694Z,2.22
2022-09-07T04:23:27.108Z,2.38
2022-09-07T04:27:29.221Z,2.39
2022-09-07T04:31:34.431Z,2.49
2022-09-07T04:35:42.077Z,2.69
2022-09-07T04:39:44.407Z,2.66
2022-09-07T04:43:47.698Z,2.80
2022-09-07T04:47:50.155Z,2.99
2022-09-07T04:51:55.392Z,3.31
2022-09-07T04:56:00.582Z,3.54
2022-09-07T05:00:04.047Z,3.71
2022-09-07T05:04:06.297Z,3.88
2022-09-07T05:08:08.269Z,4.11
2022-09-07T05:12:10.995Z,4.35
2022-09-07T05:16:24.260Z,4.62
2022-09-07T05:20:26.767Z,4.85
2022-09-07T05:24:28.917Z,5.11
2022-09-07T05:28:31.778Z,5.32
2022-09-07T05:32:34.439Z,5.52
2022-09-07T05:36:37.143Z,5.79
2022-09-07T05:40:40.786Z,6.02
2022-09-07T05:44:43.951Z,6.26
2022-09-07T05:48:47.084Z,6.47
2022-09-07T05:52:49.476Z,6.75
2022-09-07T05:56:51.444Z,7.03
2022-09-07T06:00:57.607Z,7.29
2022-09-07T06:04:59.601Z,7.76
2022-09-07T06:09:01.878Z,8.21
2022-09-07T06:13:04.801Z,8.66
2022-09-07T06:17:07.034Z,9.07
2022-09-07T06:21:30.579Z,9.68
2022-09-07T06:25:33.508Z,10.09
2022-09-07T06:29:35.817Z,10.60
2022-09-07T06:33:37.997Z,11.14
2022-09-07T06:37:40.765Z,11.66
2022-09-07T06:41:58.880Z,11.99
2022-09-07T06:50:28.450Z,12.74
2022-09-07T06:58:55.408Z,13.36
2022-09-07T07:02:57.452Z,13.63
2022-09-07T07:06:59.755Z,13.94
2022-09-07T07:11:10.423Z,14.17
2022-09-07T07:15:12.629Z,14.55
2022-09-07T07:19:14.749Z,14.80
2022-09-07T07:23:17.072Z,15.06
2022-09-07T07:27:19.107Z,15.31
2022-09-07T07:31:26.385Z,15.50
2022-09-07T07:35:28.338Z,15.75
2022-09-07T07:43:57.336Z,16.06
2022-09-07T07:47:59.543Z,15.98
2022-09-07T07:56:24.659Z,16.21
2022-09-07T08:00:43.710Z,16.46
2022-09-07T08:04:49.460Z,16.46
2022-09-07T08:08:51.555Z,16.60
2022-09-07T08:12:53.721Z,16.81
2022-09-07T08:16:55.634Z,16.85
2022-09-07T08:21:05.847Z,17.01
2022-09-07T08:25:08.810Z,17.18
2022-09-07T08:29:11.046Z,16.98
2022-09-07T08:33:13.183Z,17.30
2022-09-07T08:37:15.395Z,17.34
2022-09-07T08:41:34.356Z,17.43
2022-09-07T08:45:45.595Z,17.60
2022-09-07T08:50:03.174Z,17.50
2022-09-07T08:54:06.376Z,17.58
2022-09-07T08:58:32.590Z,17.91
2022-09-07T09:02:44.017Z,18.09
2022-09-07T09:07:03.393Z,17.99
2022-09-07T09:11:17.433Z,18.09
2022-09-07T09:15:32.342Z,17.94
2022-09-07T09:19:41.747Z,18.19
2022-09-07T09:23:46.565Z,18.28
2022-09-07T09:27:49.835Z,18.43
2022-09-07T09:31:53.676Z,18.40
2022-09-07T09:36:00.832Z,18.54
2022-09-07T09:40:04.562Z,18.61
2022-09-07T09:44:16.398Z,18.43
2022-09-07T09:48:24.027Z,18.77
2022-09-07T09:52:45.045Z,18.98
2022-09-07T09:56:50.085Z,18.75
2022-09-07T10:05:24.730Z,19.19
2022-09-07T10:09:38.118Z,19.20
2022-09-07T10:13:56.232Z,19.21
2022-09-07T10:17:59.710Z,19.04
2022-09-07T10:22:18.791Z,19.14
2022-09-07T10:26:28.658Z,18.95
2022-09-07T10:30:41.190Z,19.36
2022-09-07T10:34:49.070Z,19.66
2022-09-07T10:39:01.467Z,19.46
2022-09-07T10:43:22.348Z,19.58
2022-09-07T10:47:30.752Z,19.68
2022-09-07T10:51:56.358Z,19.72
2022-09-07T10:56:26.499Z,19.87
2022-09-07T11:00:39.280Z,20.17
2022-09-07T11:04:49.554Z,20.18
2022-09-07T11:09:21.074Z,19.78
2022-09-07T11:13:30.219Z,19.63
2022-09-07T11:17:55.248Z,20.21
2022-09-07T11:22:16.198Z,20.33
2022-09-07T11:26:39.607Z,20.72
2022-09-07T11:31:01.011Z,20.40
2022-09-07T11:35:25.942Z,20.41
2022-09-07T11:39:55.302Z,20.54
2022-09-07T11:44:28.855Z,20.93
2022-09-07T11:48:42.205Z,21.08
2022-09-07T11:53:14.933Z,20.63
2022-09-07T11:57:38.298Z,20.71
2022-09-07T12:02:02.170Z,20.93
2022-09-07T12:06:15.342Z,21.11
2022-09-07T12:10:39.917Z,21.17
2022-09-07T12:15:02.722Z,21.20
2022-09-07T12:19:23.729Z,20.96
2022-09-07T12:23:29.847Z,20.86
2022-09-07T12:27:31.984Z,20.63
2022-09-07T12:36:26.382Z,20.74
2022-09-07T12:40:33.798Z,21.58
2022-09-07T12:44:37.739Z,21.41
2022-09-07T12:49:10.768Z,21.28
2022-09-07T12:53:13.004Z,21.58
2022-09-07T12:57:35.956Z,21.33
2022-09-07T13:01:50.442Z,21.66
2022-09-07T13:10:49.463Z,21.48
2022-09-07T13:14:55.726Z,21.44
2022-09-07T13:18:59.527Z,21.71
2022-09-07T13:23:12.282Z,21.79
2022-09-07T13:27:27.582Z,21.88
2022-09-07T13:31:52.926Z,21.72
2022-09-07T13:36:00.370Z,21.29
2022-09-07T13:40:04.221Z,21.85
2022-09-07T13:44:06.630Z,21.55
2022-09-07T13:48:20.434Z,21.83
2022-09-07T13:52:33.677Z,21.45
2022-09-07T13:56:58.435Z,21.29
2022-09-07T14:01:18.483Z,21.67
2022-09-07T14:05:22.498Z,21.30
2022-09-07T14:09:27.263Z,21.48
2022-09-07T14:13:29.497Z,21.79
2022-09-07T14:17:31.591Z,21.85
2022-09-07T14:21:33.740Z,21.64
2022-09-07T14:26:16.037Z,21.93
2022-09-07T14:30:20.325Z,21.77
2022-09-07T14:34:26.573Z,21.51
2022-09-07T14:42:55.905Z,22.11
2022-09-07T14:47:02.766Z,21.84
2022-09-07T14:51:26.941Z,22.01
2022-09-07T14:55:37.131Z,21.72
2022-09-07T14:59:44.422Z,21.97
2022-09-07T15:03:46.531Z,21.80
2022-09-07T15:07:51.834Z,21.77
2022-09-07T15:12:04.220Z,21.96
2022-09-07T15:16:18.991Z,21.63
2022-09-07T15:20:44.399Z,21.55
2022-09-07T15:24:50.337Z,21.73
2022-09-07T15:29:18.421Z,22.47
2022-09-07T15:33:14.438Z,23.91
2022-09-07T15:41:38.600Z,27.99
2022-09-07T15:45:40.863Z,28.38
2022-09-07T15:49:50.342Z,28.54
2022-09-07T15:54:13.398Z,27.70
2022-09-07T15:58:15.750Z,25.71
2022-09-07T16:06:41.290Z,22.23
2022-09-07T16:10:43.432Z,21.17
2022-09-07T16:14:45.481Z,20.42
2022-09-07T16:18:48.122Z,19.72
2022-09-07T16:27:13.039Z,18.85
2022-09-07T16:31:18.870Z,18.54
2022-09-07T16:35:21.077Z,18.20
2022-09-07T16:39:23.383Z,17.84
2022-09-07T16:43:25.927Z,17.48
2022-09-07T16:47:27.870Z,17.10
2022-09-07T16:51:30.042Z,16.85
2022-09-07T16:55:32.223Z,16.57
2022-09-07T16:59:34.899Z,16.20
2022-09-07T17:03:38.419Z,15.77
2022-09-07T17:07:40.590Z,15.50
2022-09-07T17:11:42.607Z,15.20
2022-09-07T17:15:44.755Z,14.87
2022-09-07T17:19:46.707Z,14.51
2022-09-07T17:23:54.853Z,14.35
2022-09-07T17:27:57.792Z,14.15
2022-09-07T17:36:25.956Z,13.55
2022-09-07T17:40:28.557Z,13.25
2022-09-07T17:44:37.670Z,13.09
2022-09-07T17:48:40.665Z,12.97
2022-09-07T17:52:45.947Z,12.69
2022-09-07T17:56:48.635Z,12.53
2022-09-07T18:00:51.102Z,12.38
2022-09-07T18:04:53.471Z,12.31
2022-09-07T18:08:55.561Z,12.11
2022-09-07T18:12:57.721Z,12.07
2022-09-07T18:17:00.432Z,11.83
2022-09-07T18:21:03.379Z,11.75
2022-09-07T18:25:10.096Z,11.58
2022-09-07T18:29:27.314Z,11.29
2022-09-07T18:33:30.490Z,11.31
2022-09-07T18:37:32.725Z,11.32
2022-09-07T18:41:34.980Z,11.23
2022-09-07T18:45:37.226Z,11.15
2022-09-07T18:49:39.338Z,11.12
2022-09-07T18:53:41.818Z,11.12
2022-09-07T18:57:43.973Z,11.03
2022-09-07T19:01:46.247Z,10.98
2022-09-07T19:05:50.474Z,10.88
2022-09-07T19:09:53.084Z,10.91
2022-09-07T19:13:57.647Z,10.90
2022-09-07T19:17:59.963Z,10.81
2022-09-07T19:22:03.404Z,10.77
2022-09-07T19:26:11.176Z,10.84
2022-09-07T19:30:13.967Z,10.90
2022-09-07T19:34:17.056Z,11.04
2022-09-07T19:38:23.011Z,11.17
2022-09-07T19:42:28.042Z,11.32
2022-09-07T19:46:30.182Z,11.45
2022-09-07T19:50:32.573Z,11.52
2022-09-07T19:54:36.483Z,11.58
2022-09-07T19:58:44.437Z,11.61
2022-09-07T20:02:49.107Z,11.62
2022-09-07T20:06:51.884Z,11.56
2022-09-07T20:11:00.262Z,11.58
2022-09-07T20:15:02.431Z,11.60
2022-09-07T20:19:07.681Z,11.56
2022-09-07T20:23:10.002Z,11.52
2022-09-07T20:27:11.881Z,11.59
2022-09-07T20:31:16.201Z,11.52
2022-09-07T20:35:18.488Z,11.51
2022-09-07T20:39:20.849Z,11.48
2022-09-07T20:43:23.106Z,11.47
2022-09-07T20:47:25.503Z,11.38
2022-09-07T20:51:28.027Z,11.42
2022-09-07T20:55:30.496Z,11.30
2022-09-07T20:59:32.428Z,11.25
2022-09-07T21:03:34.668Z,11.26
2022-09-07T21:07:40.305Z,11.20
2022-09-07T21:11:46.108Z,11.08
2022-09-07T21:15:51.028Z,11.02
2022-09-07T21:19:53.308Z,10.86
2022-09-07T21:23:57.971Z,10.81
2022-09-07T21:28:00.290Z,10.73
2022-09-07T21:32:03.388Z,10.59
2022-09-07T21:36:06.321Z,10.48
2022-09-07T21:40:08.920Z,10.31
2022-09-07T21:44:13.665Z,10.19
2022-09-07T21:48:15.606Z,9.88
2022-09-07T21:52:18.286Z,9.78
2022-09-07T21:56:21.449Z,9.60
2022-09-07T22:00:23.618Z,9.33
2022-09-07T22:04:25.739Z,9.05
2022-09-07T22:08:33.088Z,9.16
2022-09-07T22:12:35.027Z,8.80
2022-09-07T22:16:37.237Z,8.72
2022-09-07T22:20:40.278Z,8.72
2022-09-07T22:24:42.484Z,8.60
2022-09-07T22:28:44.526Z,8.50
2022-09-07T22:32:48.123Z,8.45
2022-09-07T22:36:50.328Z,8.37
2022-09-07T22:40:52.460Z,8.35
2022-09-07T22:44:55.259Z,8.31
2022-09-07T22:48:59.313Z,8.20
2022-09-07T22:53:01.275Z,8.20
2022-09-07T22:57:03.596Z,8.01
2022-09-07T23:01:06.624Z,7.89
2022-09-07T23:05:09.624Z,7.81
2022-09-07T23:09:15.070Z,7.81
2022-09-07T23:13:17.704Z,7.71
2022-09-07T23:17:19.666Z,7.36
2022-09-07T23:21:22.079Z,7.40
2022-09-07T23:25:24.068Z,7.34
2022-09-07T23:29:26.351Z,7.31
2022-09-07T23:33:28.651Z,7.19
2022-09-07T23:37:31.899Z,7.13
2022-09-07T23:41:34.050Z,7.08
2022-09-07T23:45:37.029Z,6.89
2022-09-07T23:49:39.196Z,6.89
2022-09-07T23:53:41.561Z,6.86
2022-09-07T23:57:43.736Z,6.55
